Huvudsida
METAR-TAF:

METAR-TAF

Flygplatser :

Maputo, Moçambique

latitud: 25-55S, longitud: 032-34E, höjd: 39 m

Aktuellt väderrapport

Denna rapport gjordes för 34 minuter sedan, klockan 14:00 UTC
Vind 13 kt från ost
Temperatur 29°C
Fuktighet 58%
Tryck 1014 hPa
Sikt 10 km eller mer
Inga moln under 1 500 m eller inga cumulonimbus

METAR: FQMA 161400Z 08013KT CAVOK 29/20 Q1014 NOSIG

Tid: 16:34 (14:34 UTC)

Väderprognos

Denna rapport gjordes för 4 timmar och 34 minuter sedan, klockan 10:00 UTC
Prognos gäller från 16 kl. 12 UTC till 17 kl. 18 UTC
Vind 10 kt från ost
Sikt 10 km eller mer
Få moln på en höjd av 2000 ft
Blir
från 16 kl. 18 UTC till 16 kl. 20 UTC
Vind 8 kt från nord
Blir
från 17 kl. 06 UTC till 17 kl. 08 UTC
Vind 16 kt från nord/nordväst

TAF: FQMA 161000Z 1612/1718 10010KT 9999 FEW020 BECMG 1618/1620 01008KT BECMG 1706/1708 34016KT TX34/1613Z TN19/1703Z

Aktuella väderrapporter och prognoser från 4000 flygplatser (METAR- och TAF-rapporter).

De tillgängliga stationerna syns som gula och röda prickar på kartan.

För musen över prickarna för att se namnen på stationerna.

Klicka sedan för att få väderrapporter och prognoser.

För att ändra kartan: Klicka på de gröna knapparna med ett svart kors på för att zooma in; den gröna knappen med ett streck på för att zooma ut; eller på de gröna pilarna för angränsande kartor.


METAR-TAF: